This is the latest recevied weather packets stored in our database for station/object MM0ZFG-5. If no packets are shown the sender has not sent any weather packets the latest 10 day(s).
| Time | Temp. | Humidity | Pressure | Rain* | Wind** | Luminosity | Snow |
|---|---|---|---|---|---|---|---|
| 1777324144 | 12.78° C | 76% | 1024.9 hPa | 0 mm | - | - | - |
| 1777323244 | 12.78° C | 76% | 1024.9 hPa | 0 mm | - | - | - |
| 1777322165 | 12.78° C | 75% | 1024.6 hPa | 0 mm | - | - | - |
| 1777316945 | 14.44° C | 71% | 1023.8 hPa | 0 mm | - | - | - |
| 1777314425 | 15.56° C | 62% | 1023.4 hPa | 0 mm | - | - | - |
| 1777313345 | 15.56° C | 61% | 1023.2 hPa | 0 mm | - | - | - |
| 1777312804 | 15.56° C | 65% | 1023.1 hPa | 0 mm | - | - | - |
| 1777302004 | 18.89° C | 52% | 1022.5 hPa | 0 mm | - | - | - |
| 1777296424 | 17.22° C | 56% | 1022.7 hPa | 0 mm | - | - | - |
| 1777293384 | 15.56° C | 61% | 1022.7 hPa | 0 mm | - | - | - |
| 1777292284 | 16.67° C | 60% | 1022.4 hPa | 0 mm | - | - | - |
| 1777291745 | 15.56° C | 60% | 1022.5 hPa | 0 mm | - | - | - |
| 1777290865 | 15.56° C | 61% | 1022.5 hPa | 0 mm | - | - | - |
| 1777290304 | 16.67° C | 62% | 1022.6 hPa | 0 mm | - | - | - |
| 1777287244 | 13.33° C | 71% | 1022.8 hPa | 0 mm | - | - | - |
| 1777286184 | 13.33° C | 68% | 1023.1 hPa | 0 mm | - | - | - |
| 1777284544 | 13.33° C | 70% | 1023 hPa | 0 mm | - | - | - |
| 1777280965 | 12.22° C | 77% | 1022.7 hPa | 0 mm | - | - | - |
| 1777273204 | 9.44° C | 89% | 1022.7 hPa | 0 mm | - | - | - |
| 1777272844 | 9.44° C | 89% | 1022.5 hPa | 0 mm | - | - | - |
| 1777272303 | 9.44° C | 90% | 1022.6 hPa | 0 mm | - | - | - |
| 1777270144 | 8.33° C | 91% | 1022.4 hPa | 0 mm | - | - | - |
| 1777269243 | 8.33° C | 91% | 1022.4 hPa | 0 mm | - | - | - |
| 1777263484 | 7.22° C | 91% | 1021.8 hPa | 0 mm | - | - | - |
| 1777257925 | 7.22° C | 87% | 1021.4 hPa | 0 mm | - | - | - |
* Rain latest hour (hover to see other rain measurements)
** Current wind speed in m/s (hover to see current wind gust speed)